createdAt,value
2022-09-14T00:00:11.613Z,62.82
2022-09-14T00:02:39.337Z,62.60
2022-09-14T00:05:07.829Z,62.65
2022-09-14T00:07:36.873Z,63.08
2022-09-14T00:10:05.274Z,62.76
2022-09-14T00:12:32.929Z,62.93
2022-09-14T00:15:00.987Z,63.06
2022-09-14T00:17:28.603Z,63.11
2022-09-14T00:19:56.198Z,63.26
2022-09-14T00:22:23.829Z,63.02
2022-09-14T00:24:53.048Z,63.25
2022-09-14T00:27:20.672Z,63.29
2022-09-14T00:29:48.927Z,63.62
2022-09-14T00:32:16.726Z,63.28
2022-09-14T00:34:44.923Z,63.54
2022-09-14T00:37:12.709Z,63.36
2022-09-14T00:39:40.525Z,63.43
2022-09-14T00:42:13.283Z,63.43
2022-09-14T00:45:06.817Z,63.79
2022-09-14T00:47:34.630Z,63.88
2022-09-14T00:50:04.427Z,63.87
2022-09-14T00:52:33.843Z,63.79
2022-09-14T00:55:03.247Z,63.89
2022-09-14T00:57:35.877Z,64.06
2022-09-14T01:00:05.310Z,63.96
2022-09-14T01:02:33.788Z,64.24
2022-09-14T01:05:01.527Z,64.48
2022-09-14T01:07:39.346Z,64.11
2022-09-14T01:10:17.449Z,64.26
2022-09-14T01:12:52.381Z,64.34
2022-09-14T01:15:25.413Z,64.27
2022-09-14T01:17:59.016Z,63.99
2022-09-14T01:20:29.272Z,64.01
2022-09-14T01:23:03.928Z,64.59
2022-09-14T01:25:52.819Z,64.51
2022-09-14T01:28:25.035Z,64.18
2022-09-14T01:30:54.526Z,64.33
2022-09-14T01:33:26.140Z,64.11
2022-09-14T01:35:55.427Z,64.29
2022-09-14T01:38:27.337Z,64.69
2022-09-14T01:40:56.994Z,64.54
2022-09-14T01:43:30.737Z,64.65
2022-09-14T01:46:05.779Z,64.51
2022-09-14T01:48:37.702Z,65.13
2022-09-14T01:51:09.206Z,64.95
2022-09-14T01:53:38.598Z,64.99
2022-09-14T01:56:10.951Z,64.91
2022-09-14T01:58:42.222Z,64.73
2022-09-14T02:01:11.631Z,65.13
2022-09-14T02:03:44.968Z,65.00
2022-09-14T02:06:15.498Z,65.07
2022-09-14T02:08:43.332Z,65.08
2022-09-14T02:11:11.008Z,64.98
2022-09-14T02:13:40.207Z,65.09
2022-09-14T02:16:07.917Z,65.09
2022-09-14T02:18:35.665Z,64.96
2022-09-14T02:21:05.927Z,65.28
2022-09-14T02:23:33.678Z,65.28
2022-09-14T02:26:01.810Z,65.41
2022-09-14T02:28:29.490Z,65.30
2022-09-14T02:31:06.906Z,65.40
2022-09-14T02:33:40.936Z,65.55
2022-09-14T02:36:14.518Z,65.36
2022-09-14T02:38:47.870Z,65.68
2022-09-14T02:41:23.147Z,65.63
2022-09-14T02:43:55.440Z,65.54
2022-09-14T02:46:38.355Z,65.63
2022-09-14T02:49:10.758Z,65.83
2022-09-14T02:51:46.494Z,66.06
2022-09-14T02:54:16.991Z,66.12
2022-09-14T02:56:44.960Z,66.30
2022-09-14T02:59:12.747Z,66.09
2022-09-14T03:01:41.804Z,66.23
2022-09-14T03:04:09.516Z,66.16
2022-09-14T03:06:37.497Z,66.12
2022-09-14T03:09:05.175Z,66.40
2022-09-14T03:11:32.808Z,66.54
2022-09-14T03:14:00.474Z,66.09
2022-09-14T03:16:28.178Z,66.29
2022-09-14T03:18:57.218Z,66.56
2022-09-14T03:21:24.949Z,65.93
2022-09-14T03:23:55.155Z,66.34
2022-09-14T03:26:24.370Z,66.29
2022-09-14T03:28:52.736Z,66.50
2022-09-14T03:31:20.768Z,66.58
2022-09-14T03:33:48.857Z,66.76
2022-09-14T03:36:19.776Z,67.10
2022-09-14T03:38:49.194Z,66.73
2022-09-14T03:41:17.050Z,67.07
2022-09-14T03:43:45.122Z,66.88
2022-09-14T03:46:14.642Z,67.20
2022-09-14T03:48:42.774Z,67.15
2022-09-14T03:51:12.439Z,66.88
2022-09-14T03:53:42.456Z,67.25
2022-09-14T03:56:10.937Z,66.79
2022-09-14T03:58:39.211Z,67.29
2022-09-14T04:01:08.356Z,67.30
2022-09-14T04:03:36.231Z,67.45
2022-09-14T04:06:05.275Z,67.00
2022-09-14T04:08:33.701Z,67.61
2022-09-14T04:11:07.912Z,67.42
2022-09-14T04:13:35.852Z,67.42
2022-09-14T04:16:03.921Z,67.44
2022-09-14T04:18:32.003Z,67.45
2022-09-14T04:21:05.789Z,67.43
2022-09-14T04:23:46.271Z,67.39
2022-09-14T04:26:26.317Z,67.47
2022-09-14T04:28:54.403Z,67.45
2022-09-14T04:31:22.137Z,67.49
2022-09-14T04:33:50.801Z,67.74
2022-09-14T04:36:19.835Z,67.88
2022-09-14T04:38:47.842Z,67.44
2022-09-14T04:41:17.173Z,67.53
2022-09-14T04:43:48.066Z,67.72
2022-09-14T04:46:16.962Z,67.50
2022-09-14T04:48:45.044Z,67.91
2022-09-14T04:51:16.629Z,67.54
2022-09-14T04:53:45.243Z,67.86
2022-09-14T04:56:14.529Z,68.06
2022-09-14T04:58:47.221Z,68.15
2022-09-14T05:01:22.030Z,68.21
2022-09-14T05:03:50.029Z,68.59
2022-09-14T05:06:18.852Z,68.51
2022-09-14T05:08:47.457Z,68.42
2022-09-14T05:11:17.129Z,68.96
2022-09-14T05:13:49.547Z,68.73
2022-09-14T05:16:20.985Z,68.19
2022-09-14T05:18:49.306Z,68.21
2022-09-14T05:21:18.628Z,68.13
2022-09-14T05:23:46.836Z,67.82
2022-09-14T05:26:15.442Z,67.85
2022-09-14T05:28:43.293Z,68.42
2022-09-14T05:31:13.107Z,68.24
2022-09-14T05:33:42.340Z,68.35
2022-09-14T05:36:10.588Z,68.62
2022-09-14T05:38:39.601Z,68.35
2022-09-14T05:41:08.594Z,68.24
2022-09-14T05:43:36.309Z,67.65
2022-09-14T05:46:05.191Z,67.67
2022-09-14T05:48:33.562Z,67.73
2022-09-14T05:51:04.903Z,67.96
2022-09-14T05:53:32.643Z,67.99
2022-09-14T05:56:01.446Z,68.07
2022-09-14T05:58:29.171Z,68.17
2022-09-14T06:00:56.821Z,67.97
2022-09-14T06:03:24.626Z,67.65
2022-09-14T06:05:54.730Z,67.97
2022-09-14T06:08:24.624Z,67.88
2022-09-14T06:10:52.232Z,68.21
2022-09-14T06:13:19.847Z,68.27
2022-09-14T06:15:47.566Z,68.13
2022-09-14T06:18:15.305Z,68.42
2022-09-14T06:20:51.353Z,68.08
2022-09-14T06:23:19.145Z,68.21
2022-09-14T06:25:48.198Z,67.94
2022-09-14T06:28:15.840Z,68.19
2022-09-14T06:30:44.906Z,68.06
2022-09-14T06:33:12.587Z,68.36
2022-09-14T06:35:42.082Z,68.03
2022-09-14T06:38:09.737Z,68.61
2022-09-14T06:40:37.502Z,68.61
2022-09-14T06:43:06.514Z,68.17
2022-09-14T06:45:34.140Z,67.45
2022-09-14T06:48:01.978Z,67.15
2022-09-14T06:50:29.837Z,67.39
2022-09-14T06:52:57.446Z,67.48
2022-09-14T06:55:25.165Z,67.38
2022-09-14T06:57:52.796Z,67.40
2022-09-14T07:00:21.958Z,67.82
2022-09-14T07:02:53.565Z,68.03
2022-09-14T07:05:23.117Z,67.78
2022-09-14T07:07:52.382Z,67.98
2022-09-14T07:10:20.111Z,67.68
2022-09-14T07:12:48.166Z,67.63
2022-09-14T07:15:18.208Z,68.16
2022-09-14T07:17:47.296Z,68.36
2022-09-14T07:20:15.456Z,68.42
2022-09-14T07:22:43.106Z,68.16
2022-09-14T07:25:11.826Z,68.18
2022-09-14T07:27:39.727Z,67.74
2022-09-14T07:30:08.961Z,68.02
2022-09-14T07:32:36.596Z,68.37
2022-09-14T07:35:06.392Z,68.21
2022-09-14T07:37:34.023Z,68.49
2022-09-14T07:40:02.000Z,68.45
2022-09-14T07:42:29.681Z,68.80
2022-09-14T07:44:57.239Z,68.93
2022-09-14T07:47:24.954Z,68.91
2022-09-14T07:49:52.774Z,69.28
2022-09-14T07:52:21.799Z,68.63
2022-09-14T07:54:49.469Z,68.93
2022-09-14T07:57:17.341Z,68.69
2022-09-14T07:59:45.026Z,68.70
2022-09-14T08:02:12.754Z,69.04
2022-09-14T08:04:40.474Z,68.12
2022-09-14T08:07:09.086Z,68.77
2022-09-14T08:09:38.874Z,68.68
2022-09-14T08:12:06.792Z,68.65
2022-09-14T08:14:34.674Z,68.96
2022-09-14T08:17:02.408Z,69.12
2022-09-14T08:19:30.168Z,69.15
2022-09-14T08:21:57.893Z,68.94
2022-09-14T08:24:25.514Z,68.97
2022-09-14T08:26:54.915Z,69.15
2022-09-14T08:29:23.096Z,68.49
2022-09-14T08:31:52.071Z,68.39
2022-09-14T08:34:21.552Z,69.11
2022-09-14T08:36:49.305Z,68.55
2022-09-14T08:39:18.050Z,69.00
2022-09-14T08:41:52.565Z,68.15
2022-09-14T08:44:26.985Z,68.42
2022-09-14T08:46:59.985Z,68.53
2022-09-14T08:49:40.672Z,68.55
2022-09-14T08:52:14.556Z,67.88
2022-09-14T08:54:42.256Z,68.62
2022-09-14T08:57:14.653Z,68.42
2022-09-14T08:59:52.006Z,68.19
2022-09-14T09:02:31.845Z,68.29
2022-09-14T09:05:05.025Z,68.31
2022-09-14T09:07:37.829Z,68.66
2022-09-14T09:10:07.275Z,68.56
2022-09-14T09:12:37.337Z,68.71
2022-09-14T09:15:16.862Z,68.11
2022-09-14T09:17:47.759Z,68.42
2022-09-14T09:20:18.661Z,68.82
2022-09-14T09:22:48.854Z,68.76
2022-09-14T09:25:23.122Z,68.73
2022-09-14T09:27:51.039Z,68.57
2022-09-14T09:30:20.151Z,68.71
2022-09-14T09:32:47.799Z,68.38
2022-09-14T09:35:16.623Z,68.19
2022-09-14T09:37:44.590Z,68.17
2022-09-14T09:40:18.071Z,67.82
2022-09-14T09:43:05.397Z,67.75
2022-09-14T09:45:51.931Z,67.90
2022-09-14T09:48:21.745Z,68.04
2022-09-14T09:50:52.105Z,68.11
2022-09-14T09:53:22.181Z,68.68
2022-09-14T09:55:50.630Z,68.77
2022-09-14T09:58:23.568Z,68.85
2022-09-14T10:01:00.741Z,69.24
2022-09-14T10:03:31.832Z,69.11
2022-09-14T10:06:04.583Z,68.82
2022-09-14T10:08:34.935Z,68.45
2022-09-14T10:11:03.894Z,68.57
2022-09-14T10:13:37.709Z,68.67
2022-09-14T10:16:09.634Z,68.42
2022-09-14T10:18:37.244Z,68.11
2022-09-14T10:21:10.066Z,68.42
2022-09-14T10:23:38.717Z,68.87
2022-09-14T10:26:24.015Z,68.01
2022-09-14T10:28:52.279Z,67.08
2022-09-14T10:31:27.147Z,67.05
2022-09-14T10:33:56.955Z,67.51
2022-09-14T10:36:29.685Z,68.08
2022-09-14T10:38:59.401Z,67.28
2022-09-14T10:41:31.921Z,67.32
2022-09-14T10:44:13.429Z,68.41
2022-09-14T10:46:47.465Z,67.55
2022-09-14T10:49:23.795Z,67.59
2022-09-14T10:51:58.418Z,66.70
2022-09-14T10:54:41.930Z,66.54
2022-09-14T10:57:15.478Z,66.55
2022-09-14T10:59:50.209Z,67.15
2022-09-14T11:02:33.207Z,66.63
2022-09-14T11:05:14.153Z,66.06
2022-09-14T11:07:52.993Z,65.44
2022-09-14T11:10:24.901Z,67.40
2022-09-14T11:13:04.549Z,67.19
2022-09-14T11:15:38.404Z,67.04
2022-09-14T11:18:17.699Z,64.88
2022-09-14T11:20:51.749Z,65.33
2022-09-14T11:23:28.705Z,64.74
2022-09-14T11:25:59.110Z,64.24
2022-09-14T11:28:30.312Z,64.97
2022-09-14T11:31:03.983Z,66.01
2022-09-14T11:33:38.140Z,64.52
2022-09-14T11:36:09.621Z,64.94
2022-09-14T11:38:41.897Z,64.76
2022-09-14T11:41:18.014Z,63.76
2022-09-14T11:43:49.226Z,63.02
2022-09-14T11:46:20.016Z,63.14
2022-09-14T11:48:53.807Z,61.73
2022-09-14T11:51:24.881Z,60.51
2022-09-14T11:53:52.521Z,60.54
2022-09-14T11:56:26.898Z,60.53
2022-09-14T11:58:59.360Z,61.67
2022-09-14T12:01:30.925Z,61.69
2022-09-14T12:04:12.358Z,58.58
2022-09-14T12:06:51.580Z,59.08
2022-09-14T12:09:53.723Z,59.93
2022-09-14T12:12:39.036Z,60.52
2022-09-14T12:15:34.547Z,61.62
2022-09-14T12:18:22.771Z,60.79
2022-09-14T12:21:01.878Z,60.46
2022-09-14T12:23:33.501Z,60.96
2022-09-14T12:26:06.375Z,60.99
2022-09-14T12:28:48.028Z,59.01
2022-09-14T12:31:34.173Z,59.40
2022-09-14T12:34:17.500Z,59.83
2022-09-14T12:37:29.846Z,59.76
2022-09-14T12:40:37.558Z,59.04
2022-09-14T12:43:48.390Z,59.03
2022-09-14T12:46:50.593Z,59.21
2022-09-14T12:49:37.962Z,59.50
2022-09-14T12:52:20.049Z,58.86
2022-09-14T12:54:59.956Z,59.35
2022-09-14T12:57:34.470Z,61.02
2022-09-14T13:00:11.001Z,61.27
2022-09-14T13:03:02.543Z,61.33
2022-09-14T13:05:31.956Z,61.34
2022-09-14T13:08:01.336Z,60.56
2022-09-14T13:10:34.000Z,61.02
2022-09-14T13:13:02.579Z,60.11
2022-09-14T13:15:33.196Z,58.92
2022-09-14T13:18:03.092Z,60.35
2022-09-14T13:20:32.513Z,60.91
2022-09-14T13:23:02.042Z,57.74
2022-09-14T13:25:35.971Z,57.91
2022-09-14T13:28:05.509Z,57.06
2022-09-14T13:30:35.029Z,58.41
2022-09-14T13:33:03.098Z,56.61
2022-09-14T13:35:33.725Z,56.95
2022-09-14T13:38:09.041Z,56.26
2022-09-14T13:40:36.793Z,58.88
2022-09-14T13:43:04.582Z,59.96
2022-09-14T13:45:33.116Z,60.77
2022-09-14T13:48:00.891Z,60.50
2022-09-14T13:50:28.584Z,58.51
2022-09-14T13:53:04.448Z,59.01
2022-09-14T13:55:45.168Z,58.01
2022-09-14T13:58:35.488Z,61.31
2022-09-14T14:01:04.658Z,60.09
2022-09-14T14:03:34.847Z,60.18
2022-09-14T14:06:17.146Z,59.91
2022-09-14T14:08:44.853Z,56.67
2022-09-14T14:11:13.990Z,56.17
2022-09-14T14:13:41.638Z,59.01
2022-09-14T14:16:20.285Z,60.12
2022-09-14T14:18:53.662Z,60.07
2022-09-14T14:21:30.167Z,58.75
2022-09-14T14:24:19.528Z,56.10
2022-09-14T14:26:53.110Z,57.50
2022-09-14T14:29:20.793Z,58.92
2022-09-14T14:31:48.791Z,58.33
2022-09-14T14:34:21.648Z,57.80
2022-09-14T14:36:50.119Z,56.83
2022-09-14T14:39:19.620Z,55.61
2022-09-14T14:41:47.870Z,57.37
2022-09-14T14:44:20.469Z,58.50
2022-09-14T14:46:48.528Z,57.26
2022-09-14T14:49:17.558Z,56.41
2022-09-14T14:51:45.547Z,57.65
2022-09-14T14:54:16.767Z,58.87
2022-09-14T14:56:46.391Z,58.09
2022-09-14T14:59:27.197Z,57.40
2022-09-14T15:01:56.426Z,58.34
2022-09-14T15:04:24.311Z,57.99
2022-09-14T15:06:52.426Z,57.24
2022-09-14T15:09:22.185Z,57.59
2022-09-14T15:11:50.364Z,56.07
2022-09-14T15:14:24.924Z,56.03
2022-09-14T15:16:57.833Z,57.11
2022-09-14T15:19:25.847Z,57.36
2022-09-14T15:21:56.255Z,57.49
2022-09-14T15:24:26.437Z,56.38
2022-09-14T15:26:54.321Z,55.55
2022-09-14T15:29:23.375Z,55.11
2022-09-14T15:31:51.484Z,56.07
2022-09-14T15:34:19.203Z,54.96
2022-09-14T15:36:50.963Z,55.32
2022-09-14T15:39:20.369Z,54.85
2022-09-14T15:41:48.261Z,55.24
2022-09-14T15:44:16.480Z,55.67
2022-09-14T15:46:46.832Z,55.86
2022-09-14T15:49:17.754Z,55.52
2022-09-14T15:51:47.448Z,55.63
2022-09-14T15:54:15.398Z,55.98
2022-09-14T15:56:43.037Z,55.12
2022-09-14T15:59:10.716Z,54.95
2022-09-14T16:01:38.297Z,55.49
2022-09-14T16:04:11.730Z,56.22
2022-09-14T16:06:40.232Z,56.43
2022-09-14T16:09:09.267Z,56.19
2022-09-14T16:11:37.842Z,56.10
2022-09-14T16:14:06.361Z,55.41
2022-09-14T16:16:34.536Z,55.58
2022-09-14T16:19:06.960Z,56.07
2022-09-14T16:21:34.549Z,55.15
2022-09-14T16:24:03.881Z,55.41
2022-09-14T16:26:38.242Z,55.41
2022-09-14T16:29:08.392Z,56.37
2022-09-14T16:31:37.333Z,57.47
2022-09-14T16:34:08.482Z,57.63
2022-09-14T16:36:39.168Z,57.94
2022-09-14T16:39:09.469Z,56.99
2022-09-14T16:41:38.962Z,56.50
2022-09-14T16:44:07.280Z,57.71
2022-09-14T16:46:35.395Z,56.73
2022-09-14T16:49:03.067Z,56.62
2022-09-14T16:51:32.317Z,58.25
2022-09-14T16:54:00.937Z,59.23
2022-09-14T16:56:30.909Z,59.46
2022-09-14T16:58:59.189Z,59.75
2022-09-14T17:01:29.649Z,60.80
2022-09-14T17:03:59.193Z,61.19
2022-09-14T17:06:29.558Z,61.44
2022-09-14T17:09:01.389Z,61.63
2022-09-14T17:11:29.793Z,60.87
2022-09-14T17:13:57.694Z,61.81
2022-09-14T17:16:27.094Z,61.57
2022-09-14T17:18:59.365Z,61.35
2022-09-14T17:21:29.961Z,61.29
2022-09-14T17:23:59.224Z,61.00
2022-09-14T17:26:27.117Z,61.62
2022-09-14T17:28:56.950Z,61.61
2022-09-14T17:31:28.168Z,61.76
2022-09-14T17:33:57.387Z,61.91
2022-09-14T17:36:26.009Z,61.79
2022-09-14T17:38:56.659Z,61.54
2022-09-14T17:41:27.919Z,62.08
2022-09-14T17:43:57.921Z,62.01
2022-09-14T17:46:25.933Z,62.06
2022-09-14T17:48:54.203Z,61.83
2022-09-14T17:51:23.086Z,61.89
2022-09-14T17:53:52.929Z,61.75
2022-09-14T17:58:43.556Z,60.94
2022-09-14T18:01:13.664Z,60.63
2022-09-14T18:03:43.124Z,60.74
2022-09-14T18:06:12.645Z,61.63
2022-09-14T18:08:40.691Z,61.44
2022-09-14T18:11:10.334Z,59.92
2022-09-14T18:13:42.502Z,61.78
2022-09-14T18:16:10.405Z,62.24
2022-09-14T18:18:38.445Z,61.81
2022-09-14T18:21:06.579Z,62.37
2022-09-14T18:23:34.629Z,62.09
2022-09-14T18:26:02.702Z,61.95
2022-09-14T18:28:31.130Z,61.68
2022-09-14T18:31:04.612Z,61.93
2022-09-14T18:33:32.369Z,61.68
2022-09-14T18:38:33.936Z,61.31
2022-09-14T18:41:04.368Z,61.46
2022-09-14T18:43:32.235Z,61.30
2022-09-14T18:46:00.460Z,61.73
2022-09-14T18:48:28.128Z,62.20
2022-09-14T18:50:55.858Z,62.09
2022-09-14T18:53:23.520Z,62.20
2022-09-14T18:55:52.554Z,62.73
2022-09-14T18:58:20.132Z,63.04
2022-09-14T19:00:48.233Z,63.25
2022-09-14T19:03:15.894Z,63.22
2022-09-14T19:05:43.638Z,63.62
2022-09-14T19:08:13.543Z,63.77
2022-09-14T19:10:47.203Z,63.68
2022-09-14T19:13:16.495Z,63.74
2022-09-14T19:15:44.500Z,63.60
2022-09-14T19:18:12.215Z,63.73
2022-09-14T19:21:04.677Z,63.35
2022-09-14T19:23:27.826Z,63.48
2022-09-14T19:25:55.497Z,63.82
2022-09-14T19:28:24.496Z,64.15
2022-09-14T19:30:52.121Z,64.06
2022-09-14T19:33:19.722Z,63.85
2022-09-14T19:35:47.592Z,63.28
2022-09-14T19:38:15.547Z,63.37
2022-09-14T19:40:52.079Z,63.10
2022-09-14T19:43:19.714Z,63.42
2022-09-14T19:45:48.881Z,62.82
2022-09-14T19:48:17.833Z,62.26
2022-09-14T19:50:46.069Z,62.17
2022-09-14T19:53:13.925Z,61.94
2022-09-14T19:55:41.544Z,61.77
2022-09-14T19:58:09.211Z,61.71
2022-09-14T20:00:37.038Z,61.77
2022-09-14T20:03:06.179Z,61.55
2022-09-14T20:05:33.914Z,61.47
2022-09-14T20:08:01.563Z,61.55
2022-09-14T20:10:29.247Z,61.34
2022-09-14T20:12:56.924Z,61.03
2022-09-14T20:15:24.572Z,61.69
2022-09-14T20:17:55.329Z,61.00
2022-09-14T20:20:24.749Z,61.08
2022-09-14T20:22:52.363Z,61.25
2022-09-14T20:25:20.034Z,61.02
2022-09-14T20:27:48.148Z,60.79
2022-09-14T20:30:15.952Z,60.70
2022-09-14T20:32:43.657Z,60.91
2022-09-14T20:35:11.283Z,60.66
2022-09-14T20:37:40.550Z,60.20
2022-09-14T20:40:10.081Z,60.29
2022-09-14T20:42:37.839Z,60.14
2022-09-14T20:45:06.438Z,60.16
2022-09-14T20:47:34.212Z,60.34
2022-09-14T20:50:01.989Z,60.32
2022-09-14T20:52:31.872Z,60.54
2022-09-14T20:55:01.054Z,60.38
2022-09-14T20:57:28.716Z,60.61
2022-09-14T20:59:57.689Z,60.81
2022-09-14T21:03:42.704Z,61.00
2022-09-14T21:06:12.060Z,61.40
